createdAt,value
2018-05-31T00:02:25.255Z,4.40
2018-05-31T00:05:28.246Z,3.90
2018-05-31T00:08:30.904Z,4.00
2018-05-31T00:11:34.527Z,3.73
2018-05-31T00:14:36.935Z,4.17
2018-05-31T00:17:39.497Z,4.30
2018-05-31T00:20:41.996Z,5.07
2018-05-31T00:23:44.562Z,4.60
2018-05-31T00:26:47.103Z,6.07
2018-05-31T00:29:49.512Z,4.40
2018-05-31T00:32:51.971Z,4.80
2018-05-31T00:35:55.139Z,4.63
2018-05-31T00:38:57.561Z,4.60
2018-05-31T00:42:00.408Z,4.83
2018-05-31T00:45:03.117Z,4.73
2018-05-31T00:48:05.216Z,5.07
2018-05-31T00:51:07.703Z,5.40
2018-05-31T00:54:10.249Z,5.60
2018-05-31T00:57:12.613Z,5.30
2018-05-31T01:00:14.741Z,5.30
2018-05-31T01:03:18.308Z,5.73
2018-05-31T01:06:20.808Z,5.23
2018-05-31T01:09:23.291Z,5.40
2018-05-31T01:12:26.673Z,5.27
2018-05-31T01:15:28.886Z,5.60
2018-05-31T01:18:31.701Z,5.30
2018-05-31T01:21:35.865Z,5.53
2018-05-31T01:24:38.400Z,5.30
2018-05-31T01:27:40.939Z,5.07
2018-05-31T01:30:43.471Z,5.63
2018-05-31T01:33:46.905Z,5.77
2018-05-31T01:36:48.983Z,5.60
2018-05-31T01:39:51.625Z,5.27
2018-05-31T01:42:54.033Z,5.27
2018-05-31T01:45:57.585Z,4.60
2018-05-31T01:49:00.073Z,4.83
2018-05-31T01:52:02.622Z,4.90
2018-05-31T01:55:05.089Z,5.17
2018-05-31T01:58:07.122Z,5.63
2018-05-31T02:01:11.656Z,4.63
2018-05-31T02:04:14.142Z,5.40
2018-05-31T02:07:16.185Z,5.03
2018-05-31T02:10:18.749Z,5.50
2018-05-31T02:13:20.718Z,5.57
2018-05-31T02:16:23.265Z,5.63
2018-05-31T02:19:26.456Z,5.97
2018-05-31T02:22:29.064Z,5.77
2018-05-31T02:25:31.265Z,5.73
2018-05-31T02:28:35.812Z,5.60
2018-05-31T02:31:38.294Z,5.70
2018-05-31T02:34:40.940Z,5.67
2018-05-31T02:37:43.360Z,5.57
2018-05-31T02:40:45.947Z,6.00
2018-05-31T02:43:48.932Z,6.87
2018-05-31T02:46:51.389Z,5.63
2018-05-31T02:49:53.481Z,5.63
2018-05-31T02:52:56.697Z,5.67
2018-05-31T02:55:59.027Z,5.90
2018-05-31T02:59:01.525Z,5.47
2018-05-31T03:02:04.096Z,5.13
2018-05-31T03:05:06.486Z,5.70
2018-05-31T03:08:09.144Z,5.43
2018-05-31T03:11:11.671Z,6.10
2018-05-31T03:14:13.642Z,6.23
2018-05-31T03:17:16.156Z,5.87
2018-05-31T03:20:18.676Z,5.63
2018-05-31T03:23:21.192Z,5.83
2018-05-31T03:26:23.522Z,6.10
2018-05-31T03:29:26.733Z,6.10
2018-05-31T03:32:29.286Z,6.30
2018-05-31T03:35:31.724Z,5.70
2018-05-31T03:38:34.332Z,6.30
2018-05-31T03:41:36.835Z,6.17
2018-05-31T03:44:39.316Z,6.13
2018-05-31T03:47:41.805Z,6.23
2018-05-31T03:50:49.891Z,6.43
2018-05-31T03:53:52.413Z,7.00
2018-05-31T03:56:54.866Z,6.87
2018-05-31T03:59:58.070Z,5.93
2018-05-31T04:03:00.456Z,6.83
2018-05-31T04:06:02.927Z,7.07
2018-05-31T04:09:06.008Z,6.57
2018-05-31T04:12:08.999Z,6.10
2018-05-31T04:15:11.551Z,5.67
2018-05-31T04:18:14.085Z,5.27
2018-05-31T04:21:17.637Z,5.57
2018-05-31T04:24:21.069Z,4.90
2018-05-31T04:27:28.636Z,5.00
2018-05-31T04:30:31.175Z,4.47
2018-05-31T04:33:33.649Z,4.80
2018-05-31T04:36:36.090Z,4.93
2018-05-31T04:39:38.161Z,4.53
2018-05-31T04:42:40.728Z,3.70
2018-05-31T04:45:43.128Z,3.77
2018-05-31T04:48:45.779Z,4.07
2018-05-31T04:51:48.463Z,3.90
2018-05-31T04:54:51.047Z,3.90
2018-05-31T04:57:53.348Z,3.80
2018-05-31T05:00:56.807Z,3.70
2018-05-31T05:03:59.332Z,4.07
2018-05-31T05:07:01.896Z,3.70
2018-05-31T05:10:04.388Z,3.73
2018-05-31T05:13:07.990Z,4.37
2018-05-31T05:16:10.493Z,3.57
2018-05-31T05:19:12.970Z,3.40
2018-05-31T05:22:15.037Z,3.60
2018-05-31T05:25:17.537Z,3.97
2018-05-31T05:28:21.074Z,4.00
2018-05-31T05:31:23.604Z,3.60
2018-05-31T05:34:27.153Z,3.43
2018-05-31T05:37:29.554Z,3.50
2018-05-31T05:40:32.128Z,3.70
2018-05-31T05:43:34.654Z,3.43
2018-05-31T05:46:37.120Z,3.07
2018-05-31T05:49:39.580Z,3.30
2018-05-31T05:52:42.166Z,2.77
2018-05-31T05:55:44.804Z,2.70
2018-05-31T05:58:47.283Z,2.83
2018-05-31T06:01:50.814Z,3.13
2018-05-31T06:04:53.267Z,2.60
2018-05-31T06:07:55.662Z,2.50
2018-05-31T06:10:58.752Z,2.70
2018-05-31T06:14:01.231Z,2.70
2018-05-31T06:17:03.353Z,2.63
2018-05-31T06:20:05.797Z,2.17
2018-05-31T06:23:09.281Z,2.53
2018-05-31T06:26:11.449Z,2.37
2018-05-31T06:29:13.945Z,2.17
2018-05-31T06:32:16.493Z,2.67
2018-05-31T06:35:19.155Z,2.67
2018-05-31T06:38:21.470Z,2.47
2018-05-31T06:41:23.846Z,2.20
2018-05-31T06:44:25.958Z,2.73
2018-05-31T06:47:29.520Z,2.70
2018-05-31T06:50:31.967Z,2.50
2018-05-31T06:53:34.027Z,2.67
2018-05-31T06:56:36.628Z,2.80
2018-05-31T06:59:39.048Z,2.70
2018-05-31T07:02:41.255Z,3.10
2018-05-31T07:05:43.954Z,3.43
2018-05-31T07:08:46.133Z,2.63
2018-05-31T07:11:48.660Z,3.00
2018-05-31T07:14:51.231Z,3.10
2018-05-31T07:17:53.668Z,2.47
2018-05-31T07:20:56.167Z,2.90
2018-05-31T07:23:59.719Z,3.17
2018-05-31T07:27:02.292Z,2.97
2018-05-31T07:30:04.851Z,2.73
2018-05-31T07:33:08.263Z,2.80
2018-05-31T07:36:10.838Z,3.00
2018-05-31T07:39:12.878Z,2.90
2018-05-31T07:42:15.408Z,2.93
2018-05-31T07:45:17.949Z,3.07
2018-05-31T07:48:20.435Z,2.90
2018-05-31T07:51:23.031Z,3.00
2018-05-31T07:54:25.538Z,3.47
2018-05-31T07:57:29.431Z,3.63
2018-05-31T08:00:31.432Z,3.20
2018-05-31T08:03:34.119Z,3.47
2018-05-31T08:06:36.524Z,3.63
2018-05-31T08:09:39.044Z,3.27
2018-05-31T08:12:42.656Z,3.60
2018-05-31T08:15:45.028Z,3.30
2018-05-31T08:18:47.122Z,3.50
2018-05-31T08:21:49.556Z,3.17
2018-05-31T08:24:52.087Z,3.20
2018-05-31T08:27:55.552Z,3.40
2018-05-31T08:30:59.188Z,3.50
2018-05-31T08:34:01.489Z,3.73
2018-05-31T08:37:04.196Z,3.60
2018-05-31T08:40:06.796Z,3.87
2018-05-31T08:43:09.316Z,3.83
2018-05-31T08:46:12.697Z,3.80
2018-05-31T08:49:14.783Z,3.70
2018-05-31T08:52:17.326Z,3.30
2018-05-31T08:55:20.749Z,4.00
2018-05-31T08:58:22.824Z,3.60
2018-05-31T09:01:25.389Z,3.70
2018-05-31T09:04:28.463Z,4.17
2018-05-31T09:07:30.913Z,3.60
2018-05-31T09:10:33.484Z,3.80
2018-05-31T09:13:36.302Z,3.80
2018-05-31T09:16:38.515Z,4.47
2018-05-31T09:19:40.610Z,4.43
2018-05-31T09:22:42.998Z,3.67
2018-05-31T09:25:45.543Z,4.00
2018-05-31T09:28:48.053Z,3.93
2018-05-31T09:31:50.550Z,4.50
2018-05-31T09:34:52.569Z,4.33
2018-05-31T09:37:54.971Z,4.20
2018-05-31T09:40:58.442Z,3.87
2018-05-31T09:44:00.887Z,4.40
2018-05-31T09:47:03.141Z,4.00
2018-05-31T09:50:07.184Z,4.17
2018-05-31T09:53:09.704Z,3.77
2018-05-31T09:56:12.111Z,4.57
2018-05-31T09:59:15.708Z,4.03
2018-05-31T10:02:18.343Z,4.10
2018-05-31T10:05:20.837Z,4.60
2018-05-31T10:08:22.821Z,4.03
2018-05-31T10:11:25.347Z,4.80
2018-05-31T10:14:28.772Z,4.20
2018-05-31T10:17:31.264Z,5.47
2018-05-31T10:20:33.948Z,4.70
2018-05-31T10:23:36.365Z,4.90
2018-05-31T10:26:38.903Z,4.50
2018-05-31T10:29:42.233Z,5.00
2018-05-31T10:32:46.057Z,4.40
2018-05-31T10:35:49.526Z,4.80
2018-05-31T10:38:53.094Z,4.30
2018-05-31T10:41:56.607Z,4.70
2018-05-31T10:45:01.106Z,5.07
2018-05-31T10:48:06.015Z,5.10
2018-05-31T10:51:09.865Z,4.80
2018-05-31T10:54:14.208Z,4.73
2018-05-31T10:57:17.735Z,5.00
2018-05-31T11:00:20.649Z,4.83
2018-05-31T11:03:23.632Z,5.17
2018-05-31T11:06:26.181Z,4.70
2018-05-31T11:09:29.761Z,4.40
2018-05-31T11:12:32.431Z,4.03
2018-05-31T11:15:34.660Z,4.73
2018-05-31T11:18:37.212Z,4.10
2018-05-31T11:21:39.646Z,3.80
2018-05-31T11:24:41.678Z,4.07
2018-05-31T11:27:44.258Z,3.50
2018-05-31T11:30:46.780Z,3.80
2018-05-31T11:33:51.280Z,3.93
2018-05-31T11:36:53.760Z,3.80
2018-05-31T11:39:57.323Z,3.47
2018-05-31T11:43:00.308Z,3.17
2018-05-31T11:46:02.878Z,3.63
2018-05-31T11:49:05.368Z,3.50
2018-05-31T11:52:07.926Z,3.20
2018-05-31T11:55:10.454Z,3.40
2018-05-31T11:58:12.874Z,3.57
2018-05-31T12:01:14.963Z,3.40
2018-05-31T12:04:17.457Z,3.57
2018-05-31T12:07:19.776Z,3.47
2018-05-31T12:10:22.328Z,3.30
2018-05-31T12:13:25.492Z,3.67
2018-05-31T12:16:28.036Z,3.30
2018-05-31T12:19:31.926Z,3.30
2018-05-31T12:22:34.632Z,2.80
2018-05-31T12:25:37.100Z,3.20
2018-05-31T12:28:39.581Z,3.30
2018-05-31T12:31:42.147Z,3.40
2018-05-31T12:34:44.631Z,3.20
2018-05-31T12:37:47.162Z,2.83
2018-05-31T12:40:49.704Z,2.93
2018-05-31T12:43:52.184Z,3.30
2018-05-31T12:46:55.118Z,2.70
2018-05-31T12:49:57.736Z,3.50
2018-05-31T12:53:01.715Z,2.70
2018-05-31T12:56:03.809Z,3.00
2018-05-31T12:59:06.230Z,2.50
2018-05-31T13:02:08.776Z,2.90
2018-05-31T13:05:11.272Z,2.50
2018-05-31T13:08:13.234Z,2.67
2018-05-31T13:11:15.289Z,3.00
2018-05-31T13:14:17.871Z,2.80
2018-05-31T13:17:20.401Z,2.70
2018-05-31T13:20:22.851Z,2.53
2018-05-31T13:23:25.340Z,2.70
2018-05-31T13:26:27.906Z,2.60
2018-05-31T13:29:31.417Z,2.70
2018-05-31T13:32:34.415Z,3.00
2018-05-31T13:35:37.492Z,2.73
2018-05-31T13:38:39.499Z,2.60
2018-05-31T13:41:42.033Z,2.60
2018-05-31T13:44:44.561Z,2.50
2018-05-31T13:47:48.085Z,2.87
2018-05-31T13:50:50.640Z,2.93
2018-05-31T13:53:53.116Z,3.17
2018-05-31T13:56:55.623Z,2.87
2018-05-31T13:59:58.131Z,2.50
2018-05-31T14:03:01.532Z,2.70
2018-05-31T14:06:03.616Z,2.70
2018-05-31T14:09:06.262Z,2.90
2018-05-31T14:12:08.670Z,2.90
2018-05-31T14:15:11.185Z,2.90
2018-05-31T14:18:14.642Z,3.07
2018-05-31T14:21:16.733Z,2.60
2018-05-31T14:24:19.263Z,3.00
2018-05-31T14:27:21.788Z,2.70
2018-05-31T14:30:24.274Z,3.20
2018-05-31T14:33:26.729Z,3.20
2018-05-31T14:36:30.267Z,3.07
2018-05-31T14:39:32.909Z,3.53
2018-05-31T14:42:35.360Z,3.17
2018-05-31T14:45:37.798Z,3.40
2018-05-31T14:48:41.372Z,3.00
2018-05-31T14:51:43.831Z,2.90
2018-05-31T14:54:45.915Z,3.10
2018-05-31T14:57:48.477Z,2.90
2018-05-31T15:00:51.007Z,3.20
2018-05-31T15:03:53.528Z,3.40
2018-05-31T15:06:56.004Z,3.20
2018-05-31T15:09:58.479Z,3.23
2018-05-31T15:13:01.985Z,3.27
2018-05-31T15:16:04.563Z,3.03
2018-05-31T15:19:07.116Z,3.23
2018-05-31T15:22:09.636Z,3.73
2018-05-31T15:25:12.154Z,3.50
2018-05-31T15:28:15.134Z,3.47
2018-05-31T15:31:17.149Z,3.97
2018-05-31T15:34:19.746Z,3.67
2018-05-31T15:37:22.155Z,3.60
2018-05-31T15:40:24.654Z,3.30
2018-05-31T15:43:26.691Z,3.73
2018-05-31T15:46:29.178Z,3.47
2018-05-31T15:49:32.315Z,3.90
2018-05-31T15:52:34.786Z,3.53
2018-05-31T15:55:37.249Z,3.63
2018-05-31T15:58:39.840Z,3.60
2018-05-31T16:01:42.299Z,3.70
2018-05-31T16:04:44.548Z,3.50
2018-05-31T16:07:46.871Z,3.53
2018-05-31T16:10:48.888Z,3.80
2018-05-31T16:13:51.288Z,3.30
2018-05-31T16:16:53.420Z,3.13
2018-05-31T16:19:55.980Z,3.67
2018-05-31T16:22:58.441Z,3.47
2018-05-31T16:26:01.988Z,3.90
2018-05-31T16:29:04.433Z,3.57
2018-05-31T16:32:07.008Z,3.43
2018-05-31T16:35:09.443Z,3.70
2018-05-31T16:38:12.941Z,3.60
2018-05-31T16:41:15.053Z,3.60
2018-05-31T16:44:17.621Z,3.67
2018-05-31T16:47:20.627Z,3.60
2018-05-31T16:50:23.144Z,4.00
2018-05-31T16:53:26.603Z,3.63
2018-05-31T16:56:29.237Z,3.10
2018-05-31T16:59:33.007Z,3.80
2018-05-31T17:02:35.168Z,3.30
2018-05-31T17:05:38.742Z,3.20
2018-05-31T17:08:41.561Z,3.20
2018-05-31T17:11:43.747Z,2.97
2018-05-31T17:14:46.351Z,3.40
2018-05-31T17:17:48.742Z,3.10
2018-05-31T17:20:51.288Z,3.10
2018-05-31T17:23:53.767Z,3.43
2018-05-31T17:26:55.780Z,3.23
2018-05-31T17:29:58.327Z,2.90
2018-05-31T17:33:01.324Z,3.00
2018-05-31T17:36:03.864Z,3.20
2018-05-31T17:39:06.420Z,3.40
2018-05-31T17:42:08.937Z,3.13
2018-05-31T17:45:11.403Z,3.10
2018-05-31T17:48:13.927Z,3.17
2018-05-31T17:51:16.444Z,2.70
2018-05-31T17:54:18.909Z,3.13
2018-05-31T17:57:21.048Z,3.43
2018-05-31T18:00:23.522Z,2.90
2018-05-31T18:03:26.259Z,3.00
2018-05-31T18:06:28.585Z,2.90
2018-05-31T18:09:32.008Z,3.00
2018-05-31T18:12:34.233Z,3.33
2018-05-31T18:15:36.594Z,3.10
2018-05-31T18:18:39.068Z,2.80
2018-05-31T18:21:41.607Z,2.90
2018-05-31T18:24:44.092Z,2.93
2018-05-31T18:27:46.197Z,2.60
2018-05-31T18:30:48.755Z,3.40
2018-05-31T18:33:51.231Z,3.30
2018-05-31T18:36:53.776Z,3.07
2018-05-31T18:39:56.197Z,3.03
2018-05-31T18:42:58.261Z,3.10
2018-05-31T18:46:01.865Z,2.80
2018-05-31T18:49:04.794Z,3.30
2018-05-31T18:52:07.255Z,2.70
2018-05-31T18:55:13.840Z,2.83
2018-05-31T18:58:15.851Z,2.80
2018-05-31T19:01:18.353Z,3.20
2018-05-31T19:04:20.914Z,3.60
2018-05-31T19:07:25.312Z,3.00
2018-05-31T19:10:27.899Z,3.20
2018-05-31T19:14:01.413Z,2.83
2018-05-31T19:17:04.000Z,3.60
2018-05-31T19:20:06.441Z,3.40
2018-05-31T19:23:08.439Z,3.37
2018-05-31T19:26:11.276Z,3.33
2018-05-31T19:29:13.569Z,3.60
2018-05-31T19:32:16.418Z,3.70
2018-05-31T19:35:23.376Z,3.40
2018-05-31T19:38:25.607Z,3.53
2018-05-31T19:41:28.075Z,3.87
2018-05-31T19:44:38.188Z,3.70
2018-05-31T19:47:40.584Z,3.83
2018-05-31T19:50:43.148Z,3.77
2018-05-31T19:53:45.663Z,3.63
2018-05-31T19:56:48.512Z,3.90
2018-05-31T20:00:57.527Z,3.77
2018-05-31T20:03:59.696Z,3.60
2018-05-31T20:07:02.820Z,5.03
2018-05-31T20:10:05.274Z,5.40
2018-05-31T20:13:07.721Z,5.00
2018-05-31T20:16:10.285Z,4.93
2018-05-31T20:19:12.791Z,5.40
2018-05-31T20:22:15.300Z,5.17
2018-05-31T20:25:17.767Z,4.63
2018-05-31T20:28:20.332Z,4.73
2018-05-31T20:31:22.874Z,4.27
2018-05-31T20:34:25.427Z,3.77
2018-05-31T20:37:28.852Z,3.97
2018-05-31T20:40:33.369Z,3.80
2018-05-31T20:43:35.944Z,4.17
2018-05-31T20:46:38.508Z,3.90
2018-05-31T20:49:40.908Z,4.00
2018-05-31T20:52:44.093Z,4.00
2018-05-31T20:55:46.520Z,4.50
2018-05-31T20:58:49.076Z,4.57
2018-05-31T21:01:51.549Z,4.07
2018-05-31T21:04:54.032Z,4.60
2018-05-31T21:07:56.603Z,4.00
2018-05-31T21:10:59.130Z,4.00
2018-05-31T21:14:01.324Z,4.17
2018-05-31T21:17:04.136Z,4.10
2018-05-31T21:20:06.681Z,4.13
2018-05-31T21:23:09.034Z,4.83
2018-05-31T21:26:12.153Z,4.87
2018-05-31T21:29:15.067Z,4.90
2018-05-31T21:32:17.224Z,5.40
2018-05-31T21:35:19.716Z,5.20
2018-05-31T21:38:22.176Z,5.37
2018-05-31T21:41:24.768Z,4.90
2018-05-31T21:44:28.293Z,5.90
2018-05-31T21:47:30.811Z,6.50
2018-05-31T21:50:33.836Z,4.83
2018-05-31T21:53:36.835Z,4.63
2018-05-31T21:56:40.336Z,4.90
2018-05-31T21:59:42.956Z,4.43
2018-05-31T22:02:45.355Z,4.87
2018-05-31T22:05:47.369Z,4.83
2018-05-31T22:08:49.949Z,4.80
2018-05-31T22:11:53.002Z,4.83
2018-05-31T22:14:55.325Z,3.80
2018-05-31T22:17:58.407Z,4.00
2018-05-31T22:21:04.974Z,3.50
2018-05-31T22:24:08.561Z,3.23
2018-05-31T22:27:11.170Z,2.80
2018-05-31T22:30:13.352Z,2.37
2018-05-31T22:33:15.440Z,2.00
2018-05-31T22:36:19.607Z,1.60
2018-05-31T22:39:21.676Z,1.50
2018-05-31T22:42:23.755Z,1.33
2018-05-31T22:45:25.899Z,1.30
2018-05-31T22:48:27.991Z,1.20
2018-05-31T22:51:30.127Z,1.10
2018-05-31T22:54:32.232Z,2.27
2018-05-31T22:57:34.558Z,1.40
2018-05-31T23:00:36.664Z,1.10
2018-05-31T23:03:38.703Z,1.07
2018-05-31T23:06:42.044Z,1.10
2018-05-31T23:09:44.073Z,0.80
2018-05-31T23:12:46.146Z,0.97
2018-05-31T23:15:48.428Z,1.50
2018-05-31T23:18:50.491Z,1.77
2018-05-31T23:21:52.780Z,1.67
2018-05-31T23:24:54.860Z,2.53
2018-05-31T23:27:57.177Z,2.10
2018-05-31T23:31:00.296Z,2.20
2018-05-31T23:34:02.614Z,2.10
2018-05-31T23:37:04.675Z,2.37
2018-05-31T23:40:06.896Z,2.40
2018-05-31T23:43:08.996Z,2.13
2018-05-31T23:46:11.178Z,2.50
2018-05-31T23:49:13.355Z,1.90
2018-05-31T23:52:15.531Z,2.20
2018-05-31T23:55:17.611Z,2.20
2018-05-31T23:58:19.660Z,1.70
